Calvi-Sainte-Catherine Airport


Codes: LFKC/CLY
Name: Calvi-Sainte-Catherine Airport
City: Calvi/Sainte-Catherine
Country: France
Elevation: 209 ft.
Wikipedia:

Photos at Calvi-Sainte-Catherine Airport


   Photos courtesy of SpottingLog. You can add your own sightings and photos by signing up for a free trial today.



No photos found.

Weather at Calvi-Sainte-Catherine Airport


Time (UTC)DescriptionTempratureWindCloud coverageVisibilityPressureHumidity
25-Jun-2024 12:00Light Rain22°C4 mph, N76%10000m1012hPa73%
25-Jun-2024 15:00Light Rain22°C2 mph, NW84%10000m1012hPa74%
25-Jun-2024 18:00Light Rain21°C2 mph, NW92%10000m1012hPa76%
25-Jun-2024 21:00Overcast Clouds19°C0 mph, SW94%10000m1013hPa84%
26-Jun-2024 00:00Overcast Clouds19°C2 mph, SE97%10000m1013hPa80%
26-Jun-2024 03:00Overcast Clouds19°C2 mph, NW100%10000m1012hPa83%
26-Jun-2024 06:00Overcast Clouds21°C2 mph, N100%10000m1013hPa78%
26-Jun-2024 09:00Overcast Clouds23°C7 mph, NW94%10000m1013hPa70%
26-Jun-2024 12:00Broken Clouds23°C7 mph, NW56%10000m1014hPa70%
26-Jun-2024 15:00Few Clouds23°C4 mph, W18%10000m1013hPa67%
26-Jun-2024 18:00Scattered Clouds22°C4 mph, SW38%10000m1013hPa73%
26-Jun-2024 21:00Clear Sky21°C4 mph, S5%10000m1013hPa73%
27-Jun-2024 00:00Clear Sky21°C4 mph, S4%10000m1013hPa68%
27-Jun-2024 03:00Clear Sky21°C7 mph, S0%10000m1013hPa67%
27-Jun-2024 06:00Clear Sky23°C4 mph, SW0%10000m1013hPa62%
27-Jun-2024 09:00Clear Sky25°C4 mph, W2%10000m1013hPa58%
27-Jun-2024 12:00Few Clouds26°C9 mph, W20%10000m1013hPa58%
27-Jun-2024 15:00Few Clouds25°C7 mph, W11%10000m1014hPa63%
27-Jun-2024 18:00Clear Sky24°C2 mph, W7%10000m1014hPa69%
27-Jun-2024 21:00Clear Sky23°C2 mph, E0%10000m1014hPa64%
28-Jun-2024 00:00Few Clouds23°C2 mph, E13%10000m1014hPa63%
28-Jun-2024 03:00Scattered Clouds23°C2 mph, SE29%10000m1014hPa67%
28-Jun-2024 06:00Few Clouds24°C2 mph, NE18%10000m1015hPa66%
28-Jun-2024 09:00Clear Sky26°C4 mph, N5%10000m1016hPa62%
28-Jun-2024 12:00Clear Sky27°C7 mph, N9%10000m1016hPa58%
28-Jun-2024 15:00Clear Sky28°C4 mph, N10%10000m1015hPa59%
28-Jun-2024 18:00Clear Sky27°C4 mph, NE9%10000m1015hPa69%
28-Jun-2024 21:00Broken Clouds25°C2 mph, E53%10000m1016hPa68%
29-Jun-2024 00:00Scattered Clouds25°C2 mph, S34%10000m1016hPa61%
29-Jun-2024 03:00Scattered Clouds25°C2 mph, NE40%10000m1015hPa59%
29-Jun-2024 06:00Broken Clouds26°C4 mph, SW54%10000m1016hPa60%
29-Jun-2024 09:00Broken Clouds33°C11 mph, NE66%10000m1011hPa38%
29-Jun-2024 12:00Broken Clouds30°C9 mph, W82%10000m1013hPa53%
29-Jun-2024 15:00Overcast Clouds29°C2 mph, W100%10000m1012hPa57%
29-Jun-2024 18:00Broken Clouds27°C11 mph, SW66%10000m1012hPa64%
29-Jun-2024 21:00Clear Sky24°C11 mph, SW0%10000m1013hPa74%
30-Jun-2024 00:00Clear Sky23°C9 mph, SW0%10000m1013hPa80%
30-Jun-2024 03:00Clear Sky22°C9 mph, SW0%10000m1012hPa77%
30-Jun-2024 06:00Clear Sky24°C4 mph, SW0%10000m1012hPa66%
30-Jun-2024 09:00Clear Sky26°C11 mph, W0%10000m1013hPa66%